Meteo Giornale » Osservazioni meteo Stati Uniti (USA) » Huntingburg
ore: 14:56 - Osservazioni Meteo Huntingburg
Lat. 38° 15' N Lon. 86° 57' W Alt. 161 metri s.l.m.
35 °C
Sereno
Temp. 24 Ore
21 °C
35 °C
Ovest
11.1 Km/h
Dew point 22 °C
Umidità 47 %
Visibilità 10 Km
Il sole sorge alle ore 07:17
Il sole tramonta alle ore 20:17
| Data e Ora | Cielo e Fenomeni | T °C | DP °C | Um. % | Pres. hPa | Vis. km | Vento km/h | |
|---|---|---|---|---|---|---|---|---|
| Oggi h: 14:56 | Sereno | 35 | 22 | 47 | 1018 | 10 | O 11.1 | |
| Oggi h: 13:56 | Sereno | 34 | 23 | 52 | 1018 | 10 | O 13 | |
| Oggi h: 12:56 | Sereno | 34 | 23 | 52 | 1019 | 10 | O/NO 14.8 | |
| Oggi h: 11:56 | Sereno | 33 | 24 | 59 | 1019 | 10 | O/SO 14.8 | |
| Oggi h: 10:56 | Sereno | 31 | 24 | 66 | 1019 | 10 | N 11.1 | |
| Oggi h: 09:56 | Sereno | 28 | 24 | 78 | 1019 | 10 | SO 7.4 | |
| Oggi h: 08:56 | Sereno | 25 | 24 | 94 | 1020 | 10 | S 9.3 | |
| Oggi h: 07:56 | Sereno | 22 | 22 | 100 | 1019 | 10 | S/SE 9.3 | |
| Oggi h: 06:56 | Sereno | 21 | 21 | 100 | 1019 | 13 | N 5.5 | |
| Oggi h: 05:56 | Sereno | 22 | 22 | 100 | 1018 | 10 | N 0 | |
| Oggi h: 04:56 | Sereno | 21 | 21 | 100 | 1018 | 10 | N 0 | |
| Oggi h: 03:56 | Sereno | 22 | 22 | 100 | 1018 | 10 | N 0 | |
| Oggi h: 02:56 | Sereno | 24 | 23 | 94 | 1018 | 10 | N 0 | |
| Oggi h: 01:56 | Sereno | 23 | 22 | 94 | 1018 | 10 | SE 7.4 | |
| Oggi h: 00:56 | Sereno | 24 | 23 | 94 | 1018 | 10 | S/SE 9.3 | |
| Ieri h: 23:56 | Sereno | 24 | 23 | 94 | 1018 | 10 | SE 7.4 | |
| Ieri h: 22:56 | Sereno | 25 | 23 | 88 | 1018 | 14 | N 0 | |
| Ieri h: 21:56 | Sereno | 25 | 24 | 94 | 1017 | 10 | N 0 | |
| Ieri h: 20:56 | Sereno | 28 | 23 | 74 | 1017 | 10 | N 5.5 | |
| Ieri h: 19:56 | Sereno | 31 | 22 | 58 | 1017 | 10 | SO 7.4 | |
| Ieri h: 18:56 | Sereno | 33 | 23 | 55 | 1017 | 10 | S/SO 9.3 | |
| Ieri h: 17:56 | Sereno | 34 | 22 | 49 | 1017 | 10 | S/SO 13 | |
| Ieri h: 16:56 | Poco Nuvoloso | 34 | 22 | 49 | 1018 | 10 | S/SO 13 | |
| Ieri h: 15:56 | Poco Nuvoloso | 33 | 22 | 52 | 1018 | 10 | O/SO 9.3 | |



